createdAt,value
2022-12-18T00:01:18.571Z,19.07
2022-12-18T00:03:47.360Z,17.40
2022-12-18T00:06:15.712Z,19.37
2022-12-18T00:08:44.404Z,18.33
2022-12-18T00:11:14.636Z,19.53
2022-12-18T00:13:44.402Z,18.87
2022-12-18T00:16:15.051Z,17.33
2022-12-18T00:18:43.650Z,17.00
2022-12-18T00:21:13.625Z,18.43
2022-12-18T00:23:43.761Z,17.50
2022-12-18T00:26:14.601Z,15.40
2022-12-18T00:28:44.272Z,17.67
2022-12-18T00:31:14.460Z,15.33
2022-12-18T00:33:43.183Z,16.37
2022-12-18T00:36:13.040Z,16.30
2022-12-18T00:38:42.589Z,15.90
2022-12-18T00:41:11.971Z,16.70
2022-12-18T00:43:40.223Z,15.53
2022-12-18T00:46:10.430Z,16.30
2022-12-18T00:48:38.438Z,15.00
2022-12-18T00:51:07.804Z,16.47
2022-12-18T00:53:36.376Z,13.70
2022-12-18T00:56:04.908Z,15.40
2022-12-18T00:58:35.135Z,16.23
2022-12-18T01:01:03.284Z,15.67
2022-12-18T01:03:33.055Z,15.90
2022-12-18T01:06:01.238Z,15.13
2022-12-18T01:08:29.265Z,16.20
2022-12-18T01:10:57.282Z,15.60
2022-12-18T01:13:25.592Z,16.27
2022-12-18T01:15:53.974Z,16.47
2022-12-18T01:18:22.317Z,17.23
2022-12-18T01:20:52.099Z,16.97
2022-12-18T01:23:20.033Z,15.93
2022-12-18T01:25:47.989Z,18.10
2022-12-18T01:28:16.063Z,17.13
2022-12-18T01:30:44.082Z,17.23
2022-12-18T01:33:12.070Z,19.13
2022-12-18T01:35:43.801Z,16.60
2022-12-18T01:38:13.122Z,17.47
2022-12-18T01:40:41.424Z,18.70
2022-12-18T01:43:11.613Z,19.00
2022-12-18T01:45:39.773Z,18.93
2022-12-18T01:48:09.929Z,18.07
2022-12-18T01:50:40.851Z,18.33
2022-12-18T01:53:12.481Z,19.50
2022-12-18T01:55:46.578Z,19.03
2022-12-18T01:58:14.741Z,17.97
2022-12-18T02:00:43.315Z,19.43
2022-12-18T02:03:11.636Z,18.70
2022-12-18T02:05:49.160Z,19.13
2022-12-18T02:08:23.272Z,19.50
2022-12-18T02:11:02.495Z,19.50
2022-12-18T02:13:38.702Z,19.93
2022-12-18T02:16:19.467Z,18.57
2022-12-18T02:18:52.577Z,19.37
2022-12-18T02:21:30.858Z,19.23
2022-12-18T02:24:12.499Z,18.03
2022-12-18T02:26:47.619Z,18.67
2022-12-18T02:29:18.756Z,19.60
2022-12-18T02:31:51.864Z,21.10
2022-12-18T02:34:22.109Z,20.43
2022-12-18T02:36:51.873Z,19.10
2022-12-18T02:39:22.894Z,17.57
2022-12-18T02:41:53.639Z,20.27
2022-12-18T02:44:21.654Z,19.30
2022-12-18T02:46:53.798Z,19.40
2022-12-18T02:49:36.991Z,19.77
2022-12-18T02:52:12.899Z,18.47
2022-12-18T02:54:53.364Z,20.07
2022-12-18T02:57:29.827Z,18.77
2022-12-18T03:00:02.382Z,20.17
2022-12-18T03:02:37.828Z,18.53
2022-12-18T03:05:13.639Z,18.57
2022-12-18T03:07:47.392Z,20.40
2022-12-18T03:10:18.733Z,16.97
2022-12-18T03:12:54.425Z,19.53
2022-12-18T03:15:26.295Z,18.30
2022-12-18T03:17:59.930Z,18.53
2022-12-18T03:20:31.190Z,17.87
2022-12-18T03:23:04.831Z,18.27
2022-12-18T03:25:35.014Z,19.23
2022-12-18T03:28:09.435Z,16.33
2022-12-18T03:30:42.684Z,17.40
2022-12-18T03:33:15.646Z,18.27
2022-12-18T03:35:45.012Z,17.17
2022-12-18T03:38:13.672Z,17.17
2022-12-18T03:40:52.935Z,17.30
2022-12-18T03:43:33.413Z,17.73
2022-12-18T03:46:05.334Z,17.70
2022-12-18T03:48:38.773Z,17.23
2022-12-18T03:51:11.265Z,17.53
2022-12-18T03:53:44.207Z,18.00
2022-12-18T03:56:15.603Z,15.93
2022-12-18T03:58:48.134Z,16.40
2022-12-18T04:01:19.510Z,17.53
2022-12-18T04:03:50.435Z,16.33
2022-12-18T04:06:19.813Z,16.07
2022-12-18T04:08:48.852Z,17.10
2022-12-18T04:11:17.774Z,15.87
2022-12-18T04:13:48.115Z,15.33
2022-12-18T04:16:16.181Z,14.73
2022-12-18T04:18:44.141Z,16.73
2022-12-18T04:21:12.545Z,16.03
2022-12-18T04:23:41.174Z,15.43
2022-12-18T04:26:09.442Z,17.87
2022-12-18T04:28:37.689Z,15.97
2022-12-18T04:31:07.591Z,15.07
2022-12-18T04:33:35.661Z,14.87
2022-12-18T04:36:04.209Z,16.37
2022-12-18T04:38:32.268Z,15.83
2022-12-18T04:41:00.647Z,16.07
2022-12-18T04:43:28.762Z,16.93
2022-12-18T04:46:03.787Z,17.00
2022-12-18T04:48:33.591Z,16.90
2022-12-18T04:51:01.988Z,15.50
2022-12-18T04:53:30.031Z,16.97
2022-12-18T04:56:05.967Z,17.43
2022-12-18T04:58:34.207Z,17.03
2022-12-18T05:01:02.236Z,15.47
2022-12-18T05:03:30.606Z,16.87
2022-12-18T05:06:00.318Z,16.13
2022-12-18T05:08:28.320Z,16.40
2022-12-18T05:11:01.984Z,15.83
2022-12-18T05:13:30.476Z,14.90
2022-12-18T05:15:58.533Z,14.30
2022-12-18T05:18:27.179Z,16.03
2022-12-18T05:20:56.089Z,16.10
2022-12-18T05:23:26.702Z,14.50
2022-12-18T05:25:56.181Z,16.67
2022-12-18T05:28:25.605Z,14.97
2022-12-18T05:30:55.447Z,15.30
2022-12-18T05:33:25.233Z,14.47
2022-12-18T05:35:53.745Z,15.43
2022-12-18T05:38:22.309Z,15.97
2022-12-18T05:40:52.672Z,15.53
2022-12-18T05:43:22.831Z,14.20
2022-12-18T05:45:51.868Z,15.53
2022-12-18T05:48:20.144Z,14.37
2022-12-18T05:50:49.784Z,16.37
2022-12-18T05:53:20.712Z,14.83
2022-12-18T05:55:49.375Z,14.20
2022-12-18T05:58:19.083Z,15.60
2022-12-18T06:00:48.232Z,14.90
2022-12-18T06:03:16.363Z,14.60
2022-12-18T06:05:46.292Z,16.87
2022-12-18T06:08:15.229Z,15.43
2022-12-18T06:10:44.171Z,14.60
2022-12-18T06:13:12.419Z,14.27
2022-12-18T06:15:42.096Z,14.37
2022-12-18T06:18:10.242Z,14.33
2022-12-18T06:20:40.702Z,14.13
2022-12-18T06:23:09.064Z,15.43
2022-12-18T06:25:39.608Z,13.27
2022-12-18T06:28:07.975Z,13.07
2022-12-18T06:30:37.284Z,16.50
2022-12-18T06:33:07.707Z,13.60
2022-12-18T06:35:35.722Z,14.93
2022-12-18T06:38:03.773Z,15.57
2022-12-18T06:40:32.075Z,13.47
2022-12-18T06:43:00.428Z,15.43
2022-12-18T06:45:28.587Z,13.93
2022-12-18T06:47:57.784Z,13.67
2022-12-18T06:50:28.789Z,13.10
2022-12-18T06:52:57.644Z,12.87
2022-12-18T06:55:25.717Z,14.40
2022-12-18T06:57:53.843Z,13.50
2022-12-18T07:00:22.017Z,14.00
2022-12-18T07:02:50.188Z,13.67
2022-12-18T07:05:18.305Z,13.73
2022-12-18T07:07:48.009Z,14.90
2022-12-18T07:10:16.126Z,14.83
2022-12-18T07:12:44.179Z,13.60
2022-12-18T07:15:12.640Z,14.57
2022-12-18T07:17:41.012Z,12.53
2022-12-18T07:20:10.402Z,13.53
2022-12-18T07:22:38.737Z,13.13
2022-12-18T07:25:09.546Z,14.10
2022-12-18T07:27:37.689Z,13.43
2022-12-18T07:30:07.360Z,12.73
2022-12-18T07:32:35.620Z,14.07
2022-12-18T07:35:03.730Z,14.50
2022-12-18T07:37:32.059Z,14.07
2022-12-18T07:40:00.154Z,14.17
2022-12-18T07:42:32.437Z,13.60
2022-12-18T07:45:00.581Z,14.50
2022-12-18T07:47:31.593Z,13.03
2022-12-18T07:49:59.881Z,14.27
2022-12-18T07:52:28.022Z,14.70
2022-12-18T07:54:56.666Z,13.70
2022-12-18T07:57:49.413Z,14.17
2022-12-18T08:00:15.844Z,14.10
2022-12-18T08:02:44.111Z,13.67
2022-12-18T08:05:12.164Z,15.03
2022-12-18T08:07:40.383Z,13.07
2022-12-18T08:10:09.612Z,13.73
2022-12-18T08:12:37.913Z,13.47
2022-12-18T08:15:06.883Z,15.50
2022-12-18T08:17:36.413Z,13.93
2022-12-18T08:20:06.482Z,14.83
2022-12-18T08:22:36.248Z,13.70
2022-12-18T08:25:04.676Z,13.33
2022-12-18T08:27:33.296Z,14.13
2022-12-18T08:30:02.214Z,13.33
2022-12-18T08:32:30.730Z,14.43
2022-12-18T08:35:00.500Z,13.47
2022-12-18T08:37:28.538Z,15.70
2022-12-18T08:39:56.507Z,11.67
2022-12-18T08:42:41.875Z,13.63
2022-12-18T08:45:11.172Z,12.33
2022-12-18T08:47:39.223Z,14.20
2022-12-18T08:50:09.325Z,13.93
2022-12-18T08:52:37.284Z,13.33
2022-12-18T08:55:05.789Z,14.00
2022-12-18T08:57:33.764Z,13.20
2022-12-18T09:00:01.795Z,12.93
2022-12-18T09:02:30.327Z,12.97
2022-12-18T09:04:58.498Z,13.63
2022-12-18T09:07:28.381Z,13.17
2022-12-18T09:09:56.359Z,13.80
2022-12-18T09:12:24.611Z,13.03
2022-12-18T09:14:52.575Z,13.47
2022-12-18T09:17:21.113Z,13.07
2022-12-18T09:19:49.240Z,12.37
2022-12-18T09:22:17.217Z,12.73
2022-12-18T09:24:46.652Z,14.60
2022-12-18T09:27:14.767Z,12.47
2022-12-18T09:29:42.978Z,12.97
2022-12-18T09:32:11.099Z,14.53
2022-12-18T09:34:39.249Z,12.17
2022-12-18T09:37:07.483Z,12.27
2022-12-18T09:39:50.537Z,13.83
2022-12-18T09:42:23.371Z,10.30
2022-12-18T09:44:54.490Z,11.13
2022-12-18T09:47:28.725Z,12.50
2022-12-18T09:50:00.984Z,11.63
2022-12-18T09:52:34.932Z,12.73
2022-12-18T09:55:07.026Z,12.03
2022-12-18T09:57:41.949Z,12.97
2022-12-18T10:00:20.132Z,11.87
2022-12-18T10:02:49.035Z,12.10
2022-12-18T10:05:23.814Z,11.77
2022-12-18T10:08:03.793Z,11.07
2022-12-18T10:10:41.087Z,11.53
2022-12-18T10:13:19.934Z,11.40
2022-12-18T10:16:00.219Z,12.80
2022-12-18T10:18:40.603Z,10.80
2022-12-18T10:21:14.398Z,12.03
2022-12-18T10:23:53.645Z,11.97
2022-12-18T10:26:21.980Z,11.57
2022-12-18T10:28:54.379Z,10.60
2022-12-18T10:31:25.689Z,11.40
2022-12-18T10:33:55.119Z,12.37
2022-12-18T10:36:26.931Z,11.67
2022-12-18T10:38:55.062Z,12.10
2022-12-18T10:41:29.188Z,12.73
2022-12-18T10:44:21.220Z,11.63
2022-12-18T10:46:51.617Z,10.93
2022-12-18T10:49:27.375Z,11.47
2022-12-18T10:52:07.717Z,11.57
2022-12-18T10:54:37.198Z,12.50
2022-12-18T10:57:18.991Z,13.43
2022-12-18T10:59:59.083Z,12.83
2022-12-18T11:02:36.715Z,10.43
2022-12-18T11:05:24.392Z,9.97
2022-12-18T11:07:54.968Z,11.57
2022-12-18T11:10:25.188Z,11.53
2022-12-18T11:12:53.683Z,10.83
2022-12-18T11:15:28.444Z,11.73
2022-12-18T11:17:56.559Z,11.40
2022-12-18T11:20:32.654Z,12.20
2022-12-18T11:23:02.775Z,10.67
2022-12-18T11:25:34.435Z,9.47
2022-12-18T11:28:05.295Z,11.37
2022-12-18T11:30:36.529Z,11.13
2022-12-18T11:33:07.874Z,11.40
2022-12-18T11:49:35.856Z,9.67
2022-12-18T11:52:10.907Z,10.93
2022-12-18T11:54:39.351Z,11.13
2022-12-18T11:57:15.338Z,10.67
2022-12-18T11:59:53.470Z,10.93
2022-12-18T12:02:43.002Z,10.23
2022-12-18T12:05:30.363Z,11.00
2022-12-18T12:08:05.237Z,11.47
2022-12-18T12:10:45.560Z,9.40
2022-12-18T12:13:34.446Z,10.80
2022-12-18T12:16:16.816Z,9.70
2022-12-18T12:19:03.705Z,10.53
2022-12-18T12:21:41.267Z,9.40
2022-12-18T12:24:26.936Z,11.10
2022-12-18T12:27:02.316Z,10.20
2022-12-18T12:29:44.794Z,10.47
2022-12-18T12:32:44.388Z,11.90
2022-12-18T12:35:26.704Z,9.97
2022-12-18T12:38:08.035Z,10.67
2022-12-18T12:40:52.413Z,10.90
2022-12-18T12:43:27.349Z,11.43
2022-12-18T12:45:59.991Z,10.73
2022-12-18T12:48:40.750Z,11.73
2022-12-18T12:51:21.213Z,10.50
2022-12-18T12:53:51.837Z,10.77
2022-12-18T12:56:23.330Z,9.93
2022-12-18T12:59:06.677Z,10.30
2022-12-18T13:01:41.258Z,11.30
2022-12-18T13:04:22.682Z,11.87
2022-12-18T13:07:01.865Z,11.20
2022-12-18T13:09:33.348Z,11.87
2022-12-18T13:12:24.293Z,11.43
2022-12-18T13:14:52.812Z,10.60
2022-12-18T13:17:41.864Z,12.10
2022-12-18T13:20:14.058Z,10.83
2022-12-18T13:22:48.455Z,10.83
2022-12-18T13:28:55.568Z,11.23
2022-12-18T13:32:12.920Z,10.47
2022-12-18T13:34:45.835Z,11.90
2022-12-18T13:37:44.898Z,11.17
2022-12-18T13:41:00.217Z,11.53
2022-12-18T13:43:44.445Z,10.93
2022-12-18T13:49:28.456Z,11.17
2022-12-18T13:51:58.564Z,11.47
2022-12-18T13:54:35.555Z,10.63
2022-12-18T13:57:06.522Z,12.20
2022-12-18T14:00:38.572Z,11.80
2022-12-18T14:03:28.560Z,11.03
2022-12-18T14:06:03.498Z,11.40
2022-12-18T14:08:41.807Z,11.00
2022-12-18T14:11:25.289Z,10.80
2022-12-18T14:13:58.351Z,11.23
2022-12-18T14:16:26.636Z,10.07
2022-12-18T14:19:05.011Z,12.13
2022-12-18T14:21:49.530Z,9.83
2022-12-18T14:24:20.504Z,11.03
2022-12-18T14:26:52.133Z,11.60
2022-12-18T14:29:27.635Z,10.77
2022-12-18T14:32:17.537Z,10.97
2022-12-18T14:34:52.601Z,11.80
2022-12-18T14:37:24.921Z,11.20
2022-12-18T14:39:57.994Z,12.40
2022-12-18T14:42:29.209Z,13.43
2022-12-18T14:45:45.237Z,12.50
2022-12-18T14:48:23.237Z,11.93
2022-12-18T14:51:02.276Z,11.63
2022-12-18T14:53:40.430Z,12.17
2022-12-18T14:56:18.814Z,10.33
2022-12-18T14:58:49.438Z,11.90
2022-12-18T15:01:27.416Z,11.97
2022-12-18T15:03:57.307Z,11.83
2022-12-18T15:06:35.686Z,12.53
2022-12-18T15:09:06.958Z,11.10
2022-12-18T15:11:46.154Z,12.13
2022-12-18T15:14:42.218Z,11.33
2022-12-18T15:17:20.062Z,11.53
2022-12-18T15:19:49.852Z,12.03
2022-12-18T15:22:26.888Z,11.53
2022-12-18T15:24:55.659Z,12.27
2022-12-18T15:27:33.806Z,12.23
2022-12-18T15:30:18.975Z,11.03
2022-12-18T15:32:48.437Z,11.60
2022-12-18T15:35:19.471Z,11.40
2022-12-18T15:37:49.277Z,11.33
2022-12-18T15:40:18.959Z,12.43
2022-12-18T15:43:07.035Z,11.80
2022-12-18T15:45:35.292Z,12.57
2022-12-18T15:48:20.099Z,12.67
2022-12-18T15:53:35.190Z,12.77
2022-12-18T15:56:20.498Z,12.07
2022-12-18T15:58:48.943Z,12.07
2022-12-18T16:01:17.818Z,12.40
2022-12-18T16:03:46.531Z,13.13
2022-12-18T16:06:14.663Z,13.03
2022-12-18T16:08:44.382Z,13.83
2022-12-18T16:11:38.787Z,13.80
2022-12-18T16:14:13.143Z,14.70
2022-12-18T16:16:41.191Z,15.63
2022-12-18T16:19:09.444Z,16.33
2022-12-18T16:21:38.113Z,13.60
2022-12-18T16:24:08.215Z,13.10
2022-12-18T16:26:37.383Z,12.43
2022-12-18T16:29:31.010Z,12.23
2022-12-18T16:32:00.759Z,13.30
2022-12-18T16:34:31.472Z,13.90
2022-12-18T16:37:05.852Z,12.43
2022-12-18T16:39:36.473Z,15.33
2022-12-18T16:42:05.804Z,13.77
2022-12-18T16:44:34.556Z,12.77
2022-12-18T16:47:03.937Z,12.93
2022-12-18T16:49:33.818Z,13.13
2022-12-18T16:52:05.469Z,13.93
2022-12-18T16:54:35.171Z,11.37
2022-12-18T16:57:03.356Z,13.67
2022-12-18T16:59:31.763Z,12.83
2022-12-18T17:02:00.620Z,12.23
2022-12-18T17:04:28.849Z,13.77
2022-12-18T17:06:57.079Z,14.23
2022-12-18T17:09:26.241Z,14.40
2022-12-18T17:11:56.644Z,12.50
2022-12-18T17:14:25.974Z,13.87
2022-12-18T17:17:19.667Z,14.20
2022-12-18T17:19:43.073Z,15.87
2022-12-18T17:22:11.148Z,14.13
2022-12-18T17:24:39.163Z,14.20
2022-12-18T17:27:09.645Z,15.03
2022-12-18T17:29:41.333Z,13.57
2022-12-18T17:32:13.373Z,13.83
2022-12-18T17:34:42.096Z,13.83
2022-12-18T17:37:10.478Z,13.73
2022-12-18T17:39:38.616Z,16.73
2022-12-18T17:42:10.894Z,14.70
2022-12-18T17:44:44.407Z,14.63
2022-12-18T17:47:13.200Z,14.40
2022-12-18T17:49:41.703Z,15.43
2022-12-18T17:52:09.746Z,14.10
2022-12-18T17:54:39.778Z,14.40
2022-12-18T17:57:10.415Z,14.20
2022-12-18T17:59:38.646Z,13.90
2022-12-18T18:02:06.964Z,14.07
2022-12-18T18:04:35.520Z,15.90
2022-12-18T18:07:03.852Z,15.97
2022-12-18T18:09:32.256Z,15.47
2022-12-18T18:12:17.852Z,15.63
2022-12-18T18:14:47.724Z,15.27
2022-12-18T18:17:16.264Z,15.00
2022-12-18T18:19:49.438Z,15.03
2022-12-18T18:22:18.860Z,16.20
2022-12-18T18:24:47.157Z,14.70
2022-12-18T18:27:15.153Z,16.57
2022-12-18T18:29:43.506Z,15.47
2022-12-18T18:32:13.378Z,16.10
2022-12-18T18:34:44.561Z,15.60
2022-12-18T18:37:12.842Z,15.50
2022-12-18T18:39:41.282Z,15.40
2022-12-18T18:42:09.529Z,15.90
2022-12-18T18:44:37.689Z,16.83
2022-12-18T18:47:06.428Z,17.50
2022-12-18T18:49:39.679Z,16.23
2022-12-18T18:52:08.336Z,15.83
2022-12-18T18:54:36.685Z,15.20
2022-12-18T18:57:20.259Z,17.20
2022-12-18T18:59:49.042Z,16.80
2022-12-18T19:02:18.828Z,18.37
2022-12-18T19:04:48.731Z,15.77
2022-12-18T19:07:29.452Z,15.73
2022-12-18T19:10:03.851Z,15.07
2022-12-18T19:12:51.314Z,15.17
2022-12-18T19:15:21.650Z,14.80
2022-12-18T19:17:50.259Z,15.30
2022-12-18T19:20:20.091Z,14.43
2022-12-18T19:22:55.769Z,14.87
2022-12-18T19:25:35.733Z,16.10
2022-12-18T19:28:19.972Z,15.57
2022-12-18T19:30:58.657Z,14.47
2022-12-18T19:33:44.839Z,15.00
2022-12-18T19:36:19.749Z,16.43
2022-12-18T19:38:48.561Z,15.13
2022-12-18T19:41:17.980Z,15.67
2022-12-18T19:43:47.515Z,13.10
2022-12-18T19:46:17.106Z,14.53
2022-12-18T19:48:46.993Z,13.43
2022-12-18T19:51:19.099Z,14.73
2022-12-18T19:53:47.558Z,14.90
2022-12-18T19:56:19.272Z,14.60
2022-12-18T19:58:47.543Z,15.17
2022-12-18T20:01:17.688Z,13.60
2022-12-18T20:03:50.046Z,14.03
2022-12-18T20:06:26.498Z,16.00
2022-12-18T20:08:57.984Z,14.33
2022-12-18T20:11:28.794Z,15.60
2022-12-18T20:13:56.969Z,14.67
2022-12-18T20:16:26.217Z,14.70
2022-12-18T20:18:55.279Z,15.10
2022-12-18T20:21:27.037Z,14.80
2022-12-18T20:23:55.800Z,14.40
2022-12-18T20:26:25.278Z,16.50
2022-12-18T20:28:54.061Z,15.50
2022-12-18T20:31:22.898Z,14.67
2022-12-18T20:33:52.241Z,14.70
2022-12-18T20:36:28.266Z,15.03
2022-12-18T20:39:01.502Z,14.57
2022-12-18T20:41:37.915Z,13.87
2022-12-18T20:44:23.271Z,14.87
2022-12-18T20:47:03.363Z,16.30
2022-12-18T20:49:38.275Z,16.77
2022-12-18T20:52:10.248Z,15.60
2022-12-18T20:54:41.658Z,16.57
2022-12-18T20:57:10.863Z,16.27
2022-12-18T20:59:43.312Z,16.00
2022-12-18T21:02:15.651Z,16.47
2022-12-18T21:04:44.029Z,15.53
2022-12-18T21:07:13.914Z,15.97
2022-12-18T21:09:42.147Z,14.77
2022-12-18T21:12:40.339Z,16.63
2022-12-18T21:15:28.195Z,16.03
2022-12-18T21:17:57.296Z,15.37
2022-12-18T21:20:26.564Z,16.57
2022-12-18T21:22:57.768Z,16.43
2022-12-18T21:25:44.248Z,16.63
2022-12-18T21:28:13.791Z,15.97
2022-12-18T21:30:42.443Z,16.03
2022-12-18T21:33:10.733Z,15.60
2022-12-18T21:35:38.857Z,15.63
2022-12-18T21:38:08.543Z,17.63
2022-12-18T21:40:36.779Z,16.23
2022-12-18T21:43:23.133Z,17.03
2022-12-18T21:45:51.415Z,14.67
2022-12-18T21:48:19.531Z,17.13
2022-12-18T21:50:47.717Z,19.10
2022-12-18T21:53:17.955Z,17.23
2022-12-18T21:55:46.113Z,18.23
2022-12-18T21:58:14.261Z,17.73
2022-12-18T22:00:46.993Z,18.10
2022-12-18T22:03:19.396Z,18.77
2022-12-18T22:05:51.975Z,16.97
2022-12-18T22:08:40.769Z,16.77
2022-12-18T22:11:13.960Z,18.67
2022-12-18T22:13:43.632Z,18.70
2022-12-18T22:16:12.005Z,18.53
2022-12-18T22:18:40.524Z,17.60
2022-12-18T22:21:10.194Z,19.43
2022-12-18T22:23:39.955Z,17.37
2022-12-18T22:26:08.461Z,18.77
2022-12-18T22:28:54.648Z,17.73
2022-12-18T22:31:22.817Z,17.73
2022-12-18T22:33:51.306Z,17.50
2022-12-18T22:36:19.586Z,17.03
2022-12-18T22:38:52.141Z,16.03
2022-12-18T22:41:21.955Z,17.53
2022-12-18T22:43:49.969Z,16.83
2022-12-18T22:46:19.765Z,18.40
2022-12-18T22:48:48.075Z,19.90
2022-12-18T22:51:20.608Z,16.93
2022-12-18T22:53:48.929Z,15.70
2022-12-18T22:56:21.275Z,17.67
2022-12-18T22:58:50.206Z,17.47
2022-12-18T23:01:21.977Z,16.87
2022-12-18T23:03:50.984Z,15.60
2022-12-18T23:06:22.679Z,16.37
2022-12-18T23:08:56.020Z,16.83
2022-12-18T23:11:42.119Z,15.53
2022-12-18T23:14:10.488Z,16.80
2022-12-18T23:16:38.599Z,17.60
2022-12-18T23:19:07.350Z,15.90
2022-12-18T23:21:36.161Z,15.57
2022-12-18T23:24:05.843Z,15.73
2022-12-18T23:26:35.546Z,16.50
2022-12-18T23:29:04.868Z,14.50
2022-12-18T23:31:35.343Z,16.33
2022-12-18T23:34:04.349Z,15.37
2022-12-18T23:36:40.283Z,16.53
2022-12-18T23:39:25.026Z,13.87
2022-12-18T23:41:59.758Z,15.60
2022-12-18T23:44:28.137Z,14.10
2022-12-18T23:46:57.031Z,15.80
2022-12-18T23:49:25.414Z,17.17
2022-12-18T23:51:55.360Z,14.47
2022-12-18T23:54:33.455Z,16.67
2022-12-18T23:57:03.507Z,15.27
2022-12-18T23:59:31.542Z,15.83
